createdAt,value
2023-11-12T00:02:23.619Z,3.13
2023-11-12T00:04:52.298Z,2.53
2023-11-12T00:07:19.060Z,3.08
2023-11-12T00:09:46.006Z,2.45
2023-11-12T00:12:13.034Z,1.88
2023-11-12T00:14:47.561Z,4.15
2023-11-12T00:17:15.242Z,3.15
2023-11-12T00:19:42.227Z,11.52
2023-11-12T00:22:09.513Z,22.85
2023-11-12T00:24:36.308Z,7.00
2023-11-12T00:27:06.547Z,3.80
2023-11-12T00:29:35.304Z,2.58
2023-11-12T00:32:05.224Z,2.78
2023-11-12T00:34:32.002Z,3.88
2023-11-12T00:37:06.444Z,3.60
2023-11-12T00:39:33.443Z,2.80
2023-11-12T00:42:00.377Z,2.03
2023-11-12T00:44:27.193Z,4.47
2023-11-12T00:46:53.967Z,1.92
2023-11-12T00:49:20.649Z,1.92
2023-11-12T00:51:49.527Z,4.03
2023-11-12T00:54:16.207Z,3.42
2023-11-12T00:56:42.881Z,1.42
2023-11-12T00:59:14.054Z,2.22
2023-11-12T01:01:44.793Z,2.13
2023-11-12T01:04:18.207Z,1.65
2023-11-12T01:06:44.796Z,1.92
2023-11-12T01:09:11.425Z,3.10
2023-11-12T01:11:41.017Z,1.70
2023-11-12T01:14:08.388Z,2.38
2023-11-12T01:16:35.898Z,2.30
2023-11-12T01:19:05.122Z,3.72
2023-11-12T01:21:31.827Z,2.17
2023-11-12T01:23:58.753Z,2.90
2023-11-12T01:26:25.711Z,4.20
2023-11-12T01:28:52.279Z,2.28
2023-11-12T01:31:18.896Z,2.10
2023-11-12T01:33:47.772Z,1.73
2023-11-12T01:36:14.517Z,3.13
2023-11-12T01:38:41.075Z,3.05
2023-11-12T01:43:45.009Z,3.15
2023-11-12T01:46:15.100Z,3.17
2023-11-12T01:48:41.904Z,3.65
2023-11-12T01:51:15.382Z,3.75
2023-11-12T01:53:42.883Z,2.50
2023-11-12T01:56:14.741Z,3.50
2023-11-12T01:58:42.790Z,3.55
2023-11-12T02:01:09.746Z,3.15
2023-11-12T02:03:37.528Z,2.35
2023-11-12T02:06:05.118Z,3.10
2023-11-12T02:08:34.583Z,2.20
2023-11-12T02:11:08.641Z,2.60
2023-11-12T02:13:38.370Z,2.85
2023-11-12T02:16:05.723Z,2.17
2023-11-12T02:18:32.487Z,2.30
2023-11-12T02:20:59.063Z,2.30
2023-11-12T02:23:27.925Z,2.58
2023-11-12T02:25:54.596Z,3.15
2023-11-12T02:28:21.210Z,2.35
2023-11-12T02:30:47.932Z,2.90
2023-11-12T02:33:16.541Z,2.97
2023-11-12T02:35:46.832Z,3.25
2023-11-12T02:38:13.546Z,2.63
2023-11-12T02:40:40.259Z,3.47
2023-11-12T02:43:06.876Z,2.95
2023-11-12T02:45:35.870Z,3.63
2023-11-12T02:48:03.162Z,3.28
2023-11-12T02:50:34.138Z,3.92
2023-11-12T02:53:02.321Z,3.65
2023-11-12T02:55:32.539Z,4.18
2023-11-12T02:57:59.910Z,4.03
2023-11-12T03:00:29.509Z,4.07
2023-11-12T03:02:59.635Z,3.65
2023-11-12T03:05:28.040Z,3.22
2023-11-12T03:07:54.955Z,4.15
2023-11-12T03:10:28.466Z,3.28
2023-11-12T03:12:55.526Z,3.97
2023-11-12T03:15:25.362Z,3.70
2023-11-12T03:17:52.968Z,4.88
2023-11-12T03:20:19.630Z,4.07
2023-11-12T03:22:50.276Z,3.47
2023-11-12T03:25:16.921Z,4.65
2023-11-12T03:27:43.659Z,5.10
2023-11-12T03:30:10.966Z,6.95
2023-11-12T03:32:39.483Z,8.10
2023-11-12T03:35:06.729Z,4.40
2023-11-12T03:37:33.789Z,6.53
2023-11-12T03:40:02.568Z,4.53
2023-11-12T03:42:29.205Z,6.15
2023-11-12T03:44:58.015Z,6.32
2023-11-12T03:47:29.941Z,6.50
2023-11-12T03:49:56.469Z,5.70
2023-11-12T03:52:23.083Z,4.93
2023-11-12T03:54:49.931Z,6.18
2023-11-12T03:57:17.177Z,5.65
2023-11-12T03:59:58.886Z,7.65
2023-11-12T04:02:25.495Z,6.07
2023-11-12T04:04:52.398Z,5.43
2023-11-12T04:07:19.247Z,8.73
2023-11-12T04:09:45.927Z,4.97
2023-11-12T04:12:15.046Z,4.30
2023-11-12T04:14:43.554Z,5.13
2023-11-12T04:17:10.179Z,4.50
2023-11-12T04:19:37.040Z,4.60
2023-11-12T04:22:03.773Z,4.65
2023-11-12T04:24:30.594Z,5.45
2023-11-12T04:26:57.491Z,7.38
2023-11-12T04:29:26.552Z,4.47
2023-11-12T04:31:53.191Z,4.10
2023-11-12T04:34:19.742Z,4.90
2023-11-12T04:36:48.444Z,4.90
2023-11-12T04:39:15.132Z,5.22
2023-11-12T04:41:44.036Z,7.30
2023-11-12T04:44:12.366Z,6.95
2023-11-12T04:46:39.417Z,5.97
2023-11-12T04:49:05.966Z,5.10
2023-11-12T04:51:35.895Z,5.32
2023-11-12T04:54:03.757Z,5.07
2023-11-12T04:56:30.295Z,4.20
2023-11-12T04:58:58.728Z,4.90
2023-11-12T05:01:25.630Z,5.47
2023-11-12T05:03:52.329Z,4.20
2023-11-12T05:06:19.095Z,3.95
2023-11-12T05:08:45.678Z,3.58
2023-11-12T05:11:12.687Z,3.70
2023-11-12T05:13:46.847Z,5.10
2023-11-12T05:16:13.422Z,3.65
2023-11-12T05:18:41.152Z,4.85
2023-11-12T05:21:08.103Z,5.18
2023-11-12T05:23:34.988Z,4.68
2023-11-12T05:26:04.106Z,4.10
2023-11-12T05:28:32.522Z,4.22
2023-11-12T05:30:59.306Z,3.60
2023-11-12T05:33:26.055Z,4.63
2023-11-12T05:35:54.502Z,4.75
2023-11-12T05:38:22.020Z,3.28
2023-11-12T05:40:48.565Z,4.63
2023-11-12T05:43:15.477Z,4.10
2023-11-12T05:45:42.048Z,4.90
2023-11-12T05:48:11.146Z,7.30
2023-11-12T05:50:41.052Z,6.07
2023-11-12T05:53:07.608Z,9.05
2023-11-12T05:55:34.324Z,8.93
2023-11-12T05:58:03.123Z,7.78
2023-11-12T06:00:29.908Z,10.10
2023-11-12T06:02:56.962Z,10.40
2023-11-12T06:05:25.575Z,9.07
2023-11-12T06:07:52.192Z,10.15
2023-11-12T06:10:21.110Z,8.68
2023-11-12T06:12:47.856Z,7.85
2023-11-12T06:15:14.437Z,11.38
2023-11-12T06:17:41.075Z,6.90
2023-11-12T06:20:12.557Z,13.20
2023-11-12T06:22:39.122Z,7.75
2023-11-12T06:25:06.186Z,7.97
2023-11-12T06:27:36.953Z,8.13
2023-11-12T06:30:04.337Z,7.38
2023-11-12T06:32:31.348Z,6.78
2023-11-12T06:34:59.784Z,5.65
2023-11-12T06:37:26.579Z,6.43
2023-11-12T06:39:53.328Z,6.93
2023-11-12T06:42:22.065Z,5.93
2023-11-12T06:44:49.092Z,5.85
2023-11-12T06:47:18.070Z,4.75
2023-11-12T06:49:46.637Z,5.03
2023-11-12T06:52:16.909Z,6.32
2023-11-12T06:54:43.449Z,4.15
2023-11-12T06:57:10.317Z,7.35
2023-11-12T06:59:36.917Z,4.55
2023-11-12T07:02:03.997Z,4.60
2023-11-12T07:04:38.152Z,5.78
2023-11-12T07:07:13.929Z,5.82
2023-11-12T07:09:48.092Z,8.13
2023-11-12T07:12:16.179Z,5.57
2023-11-12T07:14:43.191Z,5.22
2023-11-12T07:17:11.553Z,9.07
2023-11-12T07:19:38.128Z,6.32
2023-11-12T07:22:05.822Z,6.90
2023-11-12T07:24:35.962Z,6.47
2023-11-12T07:27:03.057Z,7.13
2023-11-12T07:29:29.815Z,5.68
2023-11-12T07:31:56.428Z,6.60
2023-11-12T07:34:24.976Z,6.95
2023-11-12T07:36:51.605Z,10.95
2023-11-12T07:39:19.187Z,7.45
2023-11-12T07:41:47.925Z,7.40
2023-11-12T07:44:14.554Z,7.35
2023-11-12T07:46:45.297Z,7.95
2023-11-12T07:49:13.511Z,6.75
2023-11-12T07:51:40.262Z,10.05
2023-11-12T07:54:06.956Z,7.55
2023-11-12T07:56:39.624Z,10.23
2023-11-12T07:59:16.457Z,7.43
2023-11-12T08:01:43.088Z,8.23
2023-11-12T08:04:10.544Z,8.80
2023-11-12T08:06:39.493Z,6.25
2023-11-12T08:09:07.861Z,6.28
2023-11-12T08:11:41.495Z,6.25
2023-11-12T08:14:10.240Z,6.97
2023-11-12T08:16:37.779Z,6.05
2023-11-12T08:19:04.493Z,5.90
2023-11-12T08:21:31.473Z,9.30
2023-11-12T08:24:00.132Z,9.18
2023-11-12T08:26:30.867Z,16.83
2023-11-12T08:28:58.772Z,8.00
2023-11-12T08:31:27.396Z,8.77
2023-11-12T08:33:54.336Z,8.52
2023-11-12T08:36:21.017Z,9.65
2023-11-12T08:38:48.687Z,8.15
2023-11-12T08:41:15.470Z,6.82
2023-11-12T08:43:45.456Z,7.97
2023-11-12T08:46:13.144Z,7.57
2023-11-12T08:48:44.404Z,8.18
2023-11-12T08:51:12.374Z,5.07
2023-11-12T08:53:41.323Z,5.28
2023-11-12T08:56:13.349Z,5.50
2023-11-12T08:58:40.131Z,4.93
2023-11-12T09:01:10.185Z,3.95
2023-11-12T09:03:38.880Z,3.58
2023-11-12T09:06:06.381Z,3.42
2023-11-12T09:08:33.096Z,3.13
2023-11-12T09:11:01.552Z,3.10
2023-11-12T09:13:28.142Z,5.07
2023-11-12T09:15:55.476Z,2.50
2023-11-12T09:18:28.512Z,2.65
2023-11-12T09:20:55.408Z,2.10
2023-11-12T09:23:21.948Z,1.98
2023-11-12T09:25:51.117Z,1.50
2023-11-12T09:28:17.830Z,1.85
2023-11-12T09:30:57.272Z,3.88
2023-11-12T09:33:29.338Z,1.17
2023-11-12T09:35:58.059Z,1.20
2023-11-12T09:38:24.616Z,1.00
2023-11-12T09:40:55.484Z,1.35
2023-11-12T09:43:26.378Z,0.90
2023-11-12T09:45:57.766Z,0.80
2023-11-12T09:48:37.123Z,0.47
2023-11-12T09:51:08.450Z,0.90
2023-11-12T09:53:37.960Z,0.70
2023-11-12T09:56:11.255Z,0.90
2023-11-12T09:58:38.698Z,1.25
2023-11-12T10:01:08.431Z,0.98
2023-11-12T10:03:37.712Z,4.25
2023-11-12T10:06:06.965Z,0.85
2023-11-12T10:08:36.685Z,1.08
2023-11-12T10:11:22.377Z,1.30
2023-11-12T10:13:49.862Z,1.58
2023-11-12T10:16:40.535Z,1.35
2023-11-12T10:19:15.711Z,1.10
2023-11-12T10:22:03.606Z,6.80
2023-11-12T10:24:32.491Z,3.03
2023-11-12T10:27:09.265Z,2.55
2023-11-12T10:29:35.817Z,4.25
2023-11-12T10:32:02.497Z,1.75
2023-11-12T10:37:20.721Z,1.63
2023-11-12T10:39:48.186Z,2.42
2023-11-12T10:42:26.785Z,2.20
2023-11-12T10:44:57.884Z,2.03
2023-11-12T10:47:30.644Z,2.05
2023-11-12T10:49:57.851Z,2.05
2023-11-12T10:52:24.674Z,4.40
2023-11-12T10:54:52.969Z,2.97
2023-11-12T10:57:20.223Z,2.92
2023-11-12T10:59:49.846Z,1.60
2023-11-12T11:02:31.589Z,1.08
2023-11-12T11:04:59.170Z,1.50
2023-11-12T11:07:25.878Z,1.70
2023-11-12T11:09:54.798Z,2.28
2023-11-12T11:12:23.463Z,1.50
2023-11-12T11:14:50.083Z,1.30
2023-11-12T11:17:37.804Z,2.10
2023-11-12T11:20:06.246Z,1.70
2023-11-12T11:22:33.485Z,1.60
2023-11-12T11:25:22.535Z,1.58
2023-11-12T11:27:51.597Z,3.00
2023-11-12T11:30:18.256Z,1.40
2023-11-12T11:32:57.530Z,1.30
2023-11-12T11:35:27.407Z,3.63
2023-11-12T11:38:10.246Z,1.10
2023-11-12T11:40:40.485Z,0.77
2023-11-12T11:43:25.317Z,1.40
2023-11-12T11:46:13.023Z,0.75
2023-11-12T11:48:46.349Z,0.98
2023-11-12T11:51:34.261Z,1.63
2023-11-12T11:54:15.887Z,1.48
2023-11-12T11:56:43.109Z,1.00
2023-11-12T11:59:09.738Z,0.95
2023-11-12T12:01:44.260Z,4.45
2023-11-12T12:04:17.036Z,1.55
2023-11-12T12:06:46.308Z,0.98
2023-11-12T12:09:18.521Z,0.60
2023-11-12T12:11:47.685Z,0.60
2023-11-12T12:14:16.467Z,0.80
2023-11-12T12:16:47.187Z,0.90
2023-11-12T12:19:33.342Z,0.70
2023-11-12T12:22:00.467Z,0.70
2023-11-12T12:24:27.401Z,0.95
2023-11-12T12:26:56.539Z,0.70
2023-11-12T12:29:25.877Z,0.75
2023-11-12T12:32:01.307Z,1.60
2023-11-12T12:34:40.351Z,0.70
2023-11-12T12:37:10.715Z,2.90
2023-11-12T12:40:12.222Z,0.85
2023-11-12T12:42:50.852Z,0.60
2023-11-12T12:45:17.936Z,0.60
2023-11-12T12:47:45.481Z,0.60
2023-11-12T12:50:18.154Z,0.45
2023-11-12T12:52:46.464Z,0.60
2023-11-12T12:55:18.200Z,0.60
2023-11-12T12:57:51.759Z,0.60
2023-11-12T13:00:22.596Z,0.60
2023-11-12T13:02:56.739Z,0.70
2023-11-12T13:05:26.688Z,0.95
2023-11-12T13:07:53.507Z,0.60
2023-11-12T13:10:24.898Z,0.57
2023-11-12T13:12:54.045Z,0.50
2023-11-12T13:15:22.478Z,0.60
2023-11-12T13:17:49.836Z,0.47
2023-11-12T13:20:20.989Z,0.50
2023-11-12T13:22:47.915Z,0.95
2023-11-12T13:25:16.003Z,0.52
2023-11-12T13:27:48.507Z,0.70
2023-11-12T13:30:16.389Z,0.70
2023-11-12T13:32:43.794Z,0.52
2023-11-12T13:35:12.793Z,0.52
2023-11-12T13:37:43.272Z,0.70
2023-11-12T13:40:16.151Z,0.60
2023-11-12T13:42:47.901Z,0.60
2023-11-12T13:45:19.574Z,1.05
2023-11-12T13:47:46.445Z,0.70
2023-11-12T13:50:15.407Z,0.65
2023-11-12T13:52:44.120Z,0.70
2023-11-12T13:55:20.710Z,0.73
2023-11-12T13:57:48.652Z,0.40
2023-11-12T14:00:17.349Z,0.35
2023-11-12T14:02:46.605Z,0.60
2023-11-12T14:05:13.496Z,0.47
2023-11-12T14:07:40.783Z,0.40
2023-11-12T14:10:13.540Z,4.13
2023-11-12T14:12:40.236Z,0.40
2023-11-12T14:15:10.846Z,0.40
2023-11-12T14:17:42.174Z,0.50
2023-11-12T14:20:11.283Z,1.17
2023-11-12T14:22:38.498Z,0.52
2023-11-12T14:25:10.840Z,0.60
2023-11-12T14:27:39.230Z,0.77
2023-11-12T14:30:14.831Z,0.70
2023-11-12T14:35:08.069Z,0.70
2023-11-12T14:37:34.857Z,0.50
2023-11-12T14:40:06.172Z,0.88
2023-11-12T14:42:33.125Z,0.90
2023-11-12T14:44:59.858Z,0.68
2023-11-12T14:47:29.726Z,0.70
2023-11-12T14:49:56.328Z,0.73
2023-11-12T14:52:24.707Z,0.63
2023-11-12T14:54:54.657Z,1.35
2023-11-12T14:57:21.216Z,0.80
2023-11-12T14:59:48.874Z,1.45
2023-11-12T15:02:15.403Z,0.98
2023-11-12T15:04:42.321Z,1.10
2023-11-12T15:07:13.555Z,1.10
2023-11-12T15:09:41.743Z,0.70
2023-11-12T15:12:12.562Z,0.93
2023-11-12T15:14:40.277Z,0.93
2023-11-12T15:17:07.026Z,1.30
2023-11-12T15:19:35.909Z,1.27
2023-11-12T15:22:02.519Z,1.40
2023-11-12T15:24:29.584Z,0.80
2023-11-12T15:26:56.254Z,0.82
2023-11-12T15:29:24.456Z,0.95
2023-11-12T15:31:51.520Z,0.80
2023-11-12T15:34:18.173Z,0.80
2023-11-12T15:36:44.830Z,0.77
2023-11-12T15:39:11.785Z,1.27
2023-11-12T15:41:38.484Z,1.02
2023-11-12T15:44:05.378Z,0.93
2023-11-12T15:46:31.983Z,1.15
2023-11-12T15:48:59.963Z,0.70
2023-11-12T15:51:26.687Z,0.88
2023-11-12T15:53:53.258Z,0.88
2023-11-12T15:56:20.149Z,1.00
2023-11-12T15:58:48.427Z,0.90
2023-11-12T16:01:15.103Z,1.38
2023-11-12T16:03:41.832Z,1.50
2023-11-12T16:06:12.812Z,1.40
2023-11-12T16:08:51.700Z,1.50
2023-11-12T16:11:23.138Z,1.60
2023-11-12T16:13:52.000Z,1.40
2023-11-12T16:16:18.577Z,1.80
2023-11-12T16:18:47.226Z,2.40
2023-11-12T16:21:13.866Z,1.73
2023-11-12T16:23:40.634Z,1.60
2023-11-12T16:26:11.690Z,1.95
2023-11-12T16:28:39.782Z,1.80
2023-11-12T16:31:08.085Z,1.90
2023-11-12T16:33:35.136Z,1.75
2023-11-12T16:36:01.725Z,1.85
2023-11-12T16:38:31.173Z,2.00
2023-11-12T16:40:58.008Z,1.80
2023-11-12T16:43:24.606Z,2.35
2023-11-12T16:45:51.838Z,1.40
2023-11-12T16:48:18.765Z,1.70
2023-11-12T16:50:48.698Z,1.80
2023-11-12T16:53:15.924Z,1.45
2023-11-12T16:55:45.240Z,2.50
2023-11-12T16:58:12.393Z,1.42
2023-11-12T17:00:39.101Z,1.77
2023-11-12T17:03:09.796Z,2.03
2023-11-12T17:05:36.661Z,2.45
2023-11-12T17:08:05.488Z,2.10
2023-11-12T17:10:38.512Z,2.45
2023-11-12T17:13:05.126Z,1.90
2023-11-12T17:15:32.467Z,2.33
2023-11-12T17:18:01.518Z,2.08
2023-11-12T17:20:28.337Z,2.00
2023-11-12T17:22:54.864Z,2.00
2023-11-12T17:25:21.643Z,2.42
2023-11-12T17:27:48.318Z,2.20
2023-11-12T17:30:15.348Z,2.30
2023-11-12T17:32:48.099Z,2.53
2023-11-12T17:35:23.781Z,2.20
2023-11-12T17:37:54.423Z,2.47
2023-11-12T17:40:21.139Z,2.50
2023-11-12T17:42:54.324Z,2.85
2023-11-12T17:45:21.065Z,2.38
2023-11-12T17:47:47.683Z,2.50
2023-11-12T17:50:14.519Z,3.75
2023-11-12T17:52:41.079Z,2.50
2023-11-12T17:55:13.489Z,2.30
2023-11-12T17:57:42.380Z,2.50
2023-11-12T18:00:10.335Z,3.22
2023-11-12T18:02:38.773Z,2.78
2023-11-12T18:05:07.430Z,2.92
2023-11-12T18:07:35.916Z,3.05
2023-11-12T18:10:03.556Z,3.10
2023-11-12T18:12:32.496Z,4.22
2023-11-12T18:15:00.757Z,2.72
2023-11-12T18:17:27.316Z,3.75
2023-11-12T18:19:59.471Z,3.35
2023-11-12T18:22:27.022Z,4.20
2023-11-12T18:24:54.067Z,3.45
2023-11-12T18:27:21.537Z,3.75
2023-11-12T18:29:48.467Z,4.13
2023-11-12T18:32:15.132Z,5.82
2023-11-12T18:34:47.489Z,5.75
2023-11-12T18:37:17.007Z,4.93
2023-11-12T18:39:44.249Z,6.50
2023-11-12T18:42:12.739Z,6.18
2023-11-12T18:44:39.272Z,4.55
2023-11-12T18:47:07.090Z,5.05
2023-11-12T18:49:34.037Z,5.07
2023-11-12T18:52:04.719Z,6.55
2023-11-12T18:54:36.327Z,5.30
2023-11-12T18:57:02.951Z,7.18
2023-11-12T18:59:29.464Z,6.60
2023-11-12T19:01:58.053Z,5.85
2023-11-12T19:04:24.622Z,5.93
2023-11-12T19:06:51.194Z,7.72
2023-11-12T19:09:17.955Z,6.43
2023-11-12T19:11:44.458Z,7.10
2023-11-12T19:14:12.890Z,5.63
2023-11-12T19:16:40.718Z,12.02
2023-11-12T19:19:07.347Z,16.38
2023-11-12T19:21:37.089Z,12.40
2023-11-12T19:24:09.219Z,15.27
2023-11-12T19:26:37.179Z,15.82
2023-11-12T19:29:03.982Z,14.23
2023-11-12T19:31:33.802Z,15.93
2023-11-12T19:34:02.800Z,11.85
2023-11-12T19:36:29.383Z,11.07
2023-11-12T19:39:00.376Z,9.57
2023-11-12T19:41:27.053Z,10.80
2023-11-12T19:43:54.624Z,10.70
2023-11-12T19:46:21.457Z,10.30
2023-11-12T19:48:48.693Z,13.13
2023-11-12T19:51:18.524Z,11.68
2023-11-12T19:53:47.782Z,9.43
2023-11-12T19:56:14.365Z,5.32
2023-11-12T19:58:41.093Z,8.05
2023-11-12T20:01:09.557Z,10.65
2023-11-12T20:03:36.260Z,9.10
2023-11-12T20:06:03.095Z,11.77
2023-11-12T20:08:31.408Z,6.05
2023-11-12T20:10:58.365Z,6.30
2023-11-12T20:13:24.982Z,8.43
2023-11-12T20:15:54.591Z,10.50
2023-11-12T20:18:23.001Z,12.80
2023-11-12T20:20:49.540Z,9.80
2023-11-12T20:23:16.110Z,6.88
2023-11-12T20:25:42.633Z,9.38
2023-11-12T20:28:14.840Z,9.20
2023-11-12T20:30:44.451Z,8.63
2023-11-12T20:33:17.643Z,7.10
2023-11-12T20:35:50.530Z,8.52
2023-11-12T20:38:17.151Z,12.50
2023-11-12T20:40:43.691Z,10.63
2023-11-12T20:43:14.361Z,11.93
2023-11-12T20:45:41.842Z,11.60
2023-11-12T20:48:08.998Z,12.80
2023-11-12T20:50:38.772Z,9.93
2023-11-12T20:53:07.382Z,8.80
2023-11-12T20:55:40.548Z,9.13
2023-11-12T20:58:08.176Z,11.43
2023-11-12T21:00:34.893Z,7.53
2023-11-12T21:03:08.078Z,5.72
2023-11-12T21:05:35.580Z,6.57
2023-11-12T21:08:02.136Z,5.68
2023-11-12T21:10:35.643Z,5.45
2023-11-12T21:13:02.339Z,4.10
2023-11-12T21:15:30.296Z,4.53
2023-11-12T21:17:58.726Z,5.35
2023-11-12T21:20:25.376Z,6.10
2023-11-12T21:22:51.900Z,7.03
2023-11-12T21:25:23.386Z,11.55
2023-11-12T21:27:53.734Z,7.22
2023-11-12T21:30:27.850Z,5.05
2023-11-12T21:32:58.495Z,6.50
2023-11-12T21:35:26.336Z,6.35
2023-11-12T21:37:54.881Z,9.18
2023-11-12T21:40:21.706Z,11.00
2023-11-12T21:42:48.308Z,8.25
2023-11-12T21:45:15.288Z,6.15
2023-11-12T21:47:42.033Z,8.90
2023-11-12T21:50:10.813Z,6.60
2023-11-12T21:52:45.826Z,11.13
2023-11-12T21:55:12.498Z,5.63
2023-11-12T21:57:39.094Z,10.45
2023-11-12T22:00:14.210Z,7.78
2023-11-12T22:02:42.761Z,10.98
2023-11-12T22:05:13.679Z,9.80
2023-11-12T22:07:42.204Z,11.50
2023-11-12T22:10:11.063Z,12.27
2023-11-12T22:12:39.916Z,9.35
2023-11-12T22:15:09.623Z,11.10
2023-11-12T22:17:39.886Z,8.18
2023-11-12T22:20:07.140Z,10.18
2023-11-12T22:22:34.069Z,11.32
2023-11-12T22:25:08.915Z,4.78
2023-11-12T22:27:43.946Z,10.13
2023-11-12T22:30:12.352Z,12.15
2023-11-12T22:32:41.656Z,11.13
2023-11-12T22:35:13.881Z,7.85
2023-11-12T22:37:41.143Z,10.90
2023-11-12T22:40:08.873Z,12.05
2023-11-12T22:42:40.699Z,5.55
2023-11-12T22:45:12.482Z,4.47
2023-11-12T22:47:40.427Z,4.47
2023-11-12T22:50:10.293Z,9.98
2023-11-12T22:52:37.433Z,5.22
2023-11-12T22:55:04.713Z,6.93
2023-11-12T22:57:33.703Z,5.88
2023-11-12T23:00:06.189Z,4.65
2023-11-12T23:02:33.739Z,9.77
2023-11-12T23:05:00.615Z,7.28
2023-11-12T23:07:28.892Z,3.75
2023-11-12T23:10:01.847Z,7.57
2023-11-12T23:12:28.364Z,8.52
2023-11-12T23:14:55.263Z,9.00
2023-11-12T23:17:24.813Z,8.88
2023-11-12T23:19:53.366Z,14.48
2023-11-12T23:22:19.963Z,8.43
2023-11-12T23:24:48.577Z,6.18
2023-11-12T23:27:21.612Z,8.02
2023-11-12T23:29:50.244Z,5.05
2023-11-12T23:32:16.889Z,6.65
2023-11-12T23:34:59.310Z,8.18
2023-11-12T23:37:25.907Z,5.45
2023-11-12T23:39:55.929Z,6.10
2023-11-12T23:42:26.346Z,4.97
2023-11-12T23:44:53.471Z,9.50
2023-11-12T23:47:23.981Z,9.18
2023-11-12T23:49:50.998Z,11.63
2023-11-12T23:52:22.735Z,6.43
2023-11-12T23:54:49.382Z,5.40
2023-11-12T23:57:16.003Z,6.68
2023-11-12T23:59:43.467Z,8.00
